Janet — 9HSL8 — position and weather

sailwx.info

Track history (hours):
 
Tides and Currents Weather Stations Pressure Air Temp Water Temp Dewpoint Dewpoint Depression Visibility Wind Speed Wind Dir Waves Ship Positions

Janet

Last reported at 2015-Aug-04 19:31 UTC. Time now 2015-Aug-05 06:23 UTC.
Position N 52°54' E 003°55'.

Length 90 m; draft 5.1 m.

Type: Cargo ship. MMSI: 256371000.

Date/timePositionNaut miles runAvg speedWind from/ knotsBaromVisibWave heightAir tempDewpointWater temp
2015-Aug-04 19:31N 52°54' E 003°55'8 8.6
2015-Aug-04 18:33N 52°59' E 004°05'11 8.8
2015-Aug-04 17:15N 53°07' E 004°19'37 9.9
2015-Aug-04 13:33N 53°34' E 005°01'1110.6
2015-Aug-04 12:33N 53°38' E 005°17'10 9.6
2015-Aug-04 11:33N 53°41' E 005°33'9 9.3
2015-Aug-04 10:33N 53°43' E 005°48'9 9.1
2015-Aug-04 09:33N 53°46' E 006°03'4410.9
2015-Aug-04 05:32N 53°58' E 007°14'1111.6
2015-Aug-04 04:33N 54°00' E 007°33'1211.7
2015-Aug-04 03:33N 54°01' E 007°53'1111.3
2015-Aug-04 02:34N 54°00' E 008°12'1111.0
2015-Aug-04 01:33N 53°58' E 008°30'8 8.4
2015-Aug-04 00:34N 53°54' E 008°42'8 7.6
2015-Aug-03 23:33N 53°51' E 008°54'9 7.8
2015-Aug-03 22:23N 53°54' E 009°09'5 6.0
2015-Aug-03 21:32N 53°57' E 009°15'11 8.6
2015-Aug-03 20:18N 54°07' E 009°20'6 8.4
2015-Aug-03 19:33N 54°11' E 009°29'4 4.3
2015-Aug-03 18:34N 54°13' E 009°35'7 6.6
2015-Aug-03 17:33N 54°18' E 009°42'7 7.0
2015-Aug-03 16:33N 54°21' E 009°53'8 7.6
2015-Aug-03 15:33N 54°22' E 010°06'1 1.1
2015-Aug-03 14:33N 54°22' E 010°08'0 0.0
2015-Aug-03 13:33N 54°22' E 010°08'1 0.5
2015-Aug-03 12:34N 54°22' E 010°09'1 1.2
2015-Aug-03 11:33N 54°22' E 010°10'1 0.7
2015-Aug-03 10:34N 54°23' E 010°11'7 6.7
2015-Aug-03 09:33N 54°29' E 010°16'1010.1
2015-Aug-03 08:34N 54°34' E 010°31'1010.5
2015-Aug-03 07:33N 54°35' E 010°49'1111.1
2015-Aug-03 06:33N 54°36' E 011°08'1110.8
2015-Aug-03 05:34N 54°32' E 011°25'1211.5
2015-Aug-03 04:33N 54°27' E 011°43'1110.9
2015-Aug-03 03:34N 54°26' E 012°02'10 9.7
2015-Aug-03 02:33N 54°34' E 012°13'1110.6
2015-Aug-03 01:33N 54°41' E 012°26'3210.8
2015-Aug-02 22:33N 54°54' E 013°17'1111.0
2015-Aug-02 21:34N 54°58' E 013°36'1110.9
2015-Aug-02 20:34N 55°01' E 013°53'1010.3
2015-Aug-02 19:34N 55°07' E 014°08'1111.0
2015-Aug-02 18:33N 55°15' E 014°21'1110.9
2015-Aug-02 17:33N 55°24' E 014°33'1110.9
2015-Aug-02 16:34N 55°30' E 014°49'1111.0
2015-Aug-02 15:33N 55°35' E 015°06'1111.3
2015-Aug-02 14:33N 55°41' E 015°24'1111.4
2015-Aug-02 13:33N 55°46' E 015°41'1111.4
2015-Aug-02 12:33N 55°53' E 015°58'1111.1
2015-Aug-02 11:33N 55°57' E 016°16'1111.1
2015-Aug-02 10:33N 56°04' E 016°32'1111.0
2015-Aug-02 09:33N 56°10' E 016°49'1111.0
2015-Aug-02 08:33N 56°17' E 017°05'7810.6
2015-Aug-02 01:12N 56°60' E 019°03'910.6
2015-Aug-02 00:20N 57°02' E 019°19'  
Track history (hours):
 
Tides and Currents Weather Stations Pressure Air Temp Water Temp Dewpoint Dewpoint Depression Visibility Wind Speed Wind Dir Waves Ship Positions

Janet

Last reported at 2015-Aug-04 19:31 UTC. Time now 2015-Aug-05 06:23 UTC.
Position N 52°54' E 003°55'.

Length 90 m; draft 5.1 m.

Type: Cargo ship. MMSI: 256371000.

Date/timePositionNaut miles runAvg speedWind from/ knotsBaromVisibWave heightAir tempDewpointWater temp
2015-Aug-04 19:31N 52°54' E 003°55'8 8.6
2015-Aug-04 18:33N 52°59' E 004°05'11 8.8
2015-Aug-04 17:15N 53°07' E 004°19'37 9.9
2015-Aug-04 13:33N 53°34' E 005°01'1110.6
2015-Aug-04 12:33N 53°38' E 005°17'10 9.6
2015-Aug-04 11:33N 53°41' E 005°33'9 9.3
2015-Aug-04 10:33N 53°43' E 005°48'9 9.1
2015-Aug-04 09:33N 53°46' E 006°03'4410.9
2015-Aug-04 05:32N 53°58' E 007°14'1111.6
2015-Aug-04 04:33N 54°00' E 007°33'1211.7
2015-Aug-04 03:33N 54°01' E 007°53'1111.3
2015-Aug-04 02:34N 54°00' E 008°12'1111.0
2015-Aug-04 01:33N 53°58' E 008°30'8 8.4
2015-Aug-04 00:34N 53°54' E 008°42'8 7.6
2015-Aug-03 23:33N 53°51' E 008°54'9 7.8
2015-Aug-03 22:23N 53°54' E 009°09'5 6.0
2015-Aug-03 21:32N 53°57' E 009°15'11 8.6
2015-Aug-03 20:18N 54°07' E 009°20'6 8.4
2015-Aug-03 19:33N 54°11' E 009°29'4 4.3
2015-Aug-03 18:34N 54°13' E 009°35'7 6.6
2015-Aug-03 17:33N 54°18' E 009°42'7 7.0
2015-Aug-03 16:33N 54°21' E 009°53'8 7.6
2015-Aug-03 15:33N 54°22' E 010°06'1 1.1
2015-Aug-03 14:33N 54°22' E 010°08'0 0.0
2015-Aug-03 13:33N 54°22' E 010°08'1 0.5
2015-Aug-03 12:34N 54°22' E 010°09'1 1.2
2015-Aug-03 11:33N 54°22' E 010°10'1 0.7
2015-Aug-03 10:34N 54°23' E 010°11'7 6.7
2015-Aug-03 09:33N 54°29' E 010°16'1010.1
2015-Aug-03 08:34N 54°34' E 010°31'1010.5
2015-Aug-03 07:33N 54°35' E 010°49'1111.1
2015-Aug-03 06:33N 54°36' E 011°08'1110.8
2015-Aug-03 05:34N 54°32' E 011°25'1211.5
2015-Aug-03 04:33N 54°27' E 011°43'1110.9
2015-Aug-03 03:34N 54°26' E 012°02'10 9.7
2015-Aug-03 02:33N 54°34' E 012°13'1110.6
2015-Aug-03 01:33N 54°41' E 012°26'3210.8
2015-Aug-02 22:33N 54°54' E 013°17'1111.0
2015-Aug-02 21:34N 54°58' E 013°36'1110.9
2015-Aug-02 20:34N 55°01' E 013°53'1010.3
2015-Aug-02 19:34N 55°07' E 014°08'1111.0
2015-Aug-02 18:33N 55°15' E 014°21'1110.9
2015-Aug-02 17:33N 55°24' E 014°33'1110.9
2015-Aug-02 16:34N 55°30' E 014°49'1111.0
2015-Aug-02 15:33N 55°35' E 015°06'1111.3
2015-Aug-02 14:33N 55°41' E 015°24'1111.4
2015-Aug-02 13:33N 55°46' E 015°41'1111.4
2015-Aug-02 12:33N 55°53' E 015°58'1111.1
2015-Aug-02 11:33N 55°57' E 016°16'1111.1
2015-Aug-02 10:33N 56°04' E 016°32'1111.0
2015-Aug-02 09:33N 56°10' E 016°49'1111.0
2015-Aug-02 08:33N 56°17' E 017°05'7810.6
2015-Aug-02 01:12N 56°60' E 019°03'910.6
2015-Aug-02 00:20N 57°02' E 019°19'  

Dump ship's entire track history